Terminal Aerodrome Forecast
Issued by NWS Lake Charles, LA

Home | Current Version | Previous Version | Text Only | Print | Product List | Glossary On
Versions: 1 2 3 4 5 6 7 8 9 10 11 12 13 14 15
000
FTUS44 KLCH 292300
TAFLCH
TAF
KLCH 292330Z 3000/3024 VRB05KT P6SM SCT250
      TEMPO 3003/3006 3SM BR
     FM300600 01012KT P6SM SCT050 SCT250
     FM301300 04014KT P6SM SCT250=

USA.gov is the U.S. government's official web portal to all federal, state and local government web resources and services.